sensor_id;sensor_type;location;lat;lon;timestamp;P1;durP1;ratioP1;P2;durP2;ratioP2
77280;SDS011;66339;47.262;17.144;2023-09-19T00:01:35;3.10;;;2.70;;
77280;SDS011;66339;47.262;17.144;2023-09-19T00:04:02;3.10;;;2.70;;
77280;SDS011;66339;47.262;17.144;2023-09-19T00:06:30;3.10;;;2.80;;
77280;SDS011;66339;47.262;17.144;2023-09-19T00:08:57;3.47;;;2.80;;
77280;SDS011;66339;47.262;17.144;2023-09-19T00:11:27;2.85;;;2.55;;
77280;SDS011;66339;47.262;17.144;2023-09-19T00:13:54;3.15;;;2.60;;
77280;SDS011;66339;47.262;17.144;2023-09-19T00:16:24;4.40;;;2.80;;
77280;SDS011;66339;47.262;17.144;2023-09-19T00:18:51;3.10;;;2.75;;
77280;SDS011;66339;47.262;17.144;2023-09-19T00:21:18;2.65;;;2.45;;
77280;SDS011;66339;47.262;17.144;2023-09-19T00:23:45;2.65;;;2.30;;
77280;SDS011;66339;47.262;17.144;2023-09-19T00:26:12;3.17;;;2.53;;
77280;SDS011;66339;47.262;17.144;2023-09-19T00:28:39;3.10;;;2.75;;
77280;SDS011;66339;47.262;17.144;2023-09-19T00:31:07;3.55;;;2.70;;
77280;SDS011;66339;47.262;17.144;2023-09-19T00:33:35;3.92;;;2.62;;
77280;SDS011;66339;47.262;17.144;2023-09-19T00:36:01;3.17;;;2.65;;
77280;SDS011;66339;47.262;17.144;2023-09-19T00:38:28;2.80;;;2.40;;
77280;SDS011;66339;47.262;17.144;2023-09-19T00:40:55;2.95;;;2.55;;
77280;SDS011;66339;47.262;17.144;2023-09-19T00:43:25;2.85;;;2.55;;
77280;SDS011;66339;47.262;17.144;2023-09-19T00:45:52;2.50;;;2.30;;
77280;SDS011;66339;47.262;17.144;2023-09-19T00:48:20;3.00;;;2.70;;
77280;SDS011;66339;47.262;17.144;2023-09-19T00:50:48;3.05;;;2.50;;
77280;SDS011;66339;47.262;17.144;2023-09-19T00:53:17;3.20;;;2.80;;
77280;SDS011;66339;47.262;17.144;2023-09-19T00:55:47;2.95;;;2.65;;
77280;SDS011;66339;47.262;17.144;2023-09-19T00:58:16;3.72;;;2.53;;
77280;SDS011;66339;47.262;17.144;2023-09-19T01:00:44;3.35;;;2.53;;
77280;SDS011;66339;47.262;17.144;2023-09-19T01:03:11;2.58;;;2.30;;
77280;SDS011;66339;47.262;17.144;2023-09-19T01:05:38;2.42;;;2.22;;
77280;SDS011;66339;47.262;17.144;2023-09-19T01:08:05;3.15;;;2.40;;
77280;SDS011;66339;47.262;17.144;2023-09-19T01:10:32;3.35;;;2.40;;
77280;SDS011;66339;47.262;17.144;2023-09-19T01:19:07;3.47;;;2.85;;
77280;SDS011;66339;47.262;17.144;2023-09-19T01:22:08;3.72;;;2.62;;
77280;SDS011;66339;47.262;17.144;2023-09-19T01:24:55;2.80;;;2.50;;
77280;SDS011;66339;47.262;17.144;2023-09-19T01:30:35;2.45;;;2.25;;
77280;SDS011;66339;47.262;17.144;2023-09-19T01:33:06;2.15;;;1.95;;
77280;SDS011;66339;47.262;17.144;2023-09-19T01:35:33;2.58;;;2.08;;
77280;SDS011;66339;47.262;17.144;2023-09-19T01:38:00;2.80;;;2.40;;
77280;SDS011;66339;47.262;17.144;2023-09-19T01:40:27;2.83;;;2.55;;
77280;SDS011;66339;47.262;17.144;2023-09-19T01:42:57;2.65;;;2.45;;
77280;SDS011;66339;47.262;17.144;2023-09-19T01:48:38;2.65;;;2.35;;
77280;SDS011;66339;47.262;17.144;2023-09-19T01:51:10;3.35;;;2.53;;
77280;SDS011;66339;47.262;17.144;2023-09-19T01:56:28;2.85;;;2.55;;
77280;SDS011;66339;47.262;17.144;2023-09-19T01:58:59;2.90;;;2.15;;
77280;SDS011;66339;47.262;17.144;2023-09-19T02:01:32;2.87;;;2.53;;
77280;SDS011;66339;47.262;17.144;2023-09-19T02:04:01;3.15;;;2.70;;
77280;SDS011;66339;47.262;17.144;2023-09-19T02:06:27;2.70;;;2.30;;
77280;SDS011;66339;47.262;17.144;2023-09-19T02:08:54;2.72;;;2.50;;
77280;SDS011;66339;47.262;17.144;2023-09-19T02:11:21;3.03;;;2.70;;
77280;SDS011;66339;47.262;17.144;2023-09-19T02:13:48;3.40;;;2.37;;
77280;SDS011;66339;47.262;17.144;2023-09-19T02:16:20;2.58;;;2.37;;
77280;SDS011;66339;47.262;17.144;2023-09-19T02:18:50;2.55;;;2.22;;
77280;SDS011;66339;47.262;17.144;2023-09-19T02:21:17;2.75;;;2.45;;
77280;SDS011;66339;47.262;17.144;2023-09-19T02:23:44;4.20;;;2.30;;
77280;SDS011;66339;47.262;17.144;2023-09-19T02:26:14;4.05;;;2.67;;
77280;SDS011;66339;47.262;17.144;2023-09-19T02:28:41;2.65;;;2.28;;
77280;SDS011;66339;47.262;17.144;2023-09-19T02:31:08;2.53;;;2.20;;
77280;SDS011;66339;47.262;17.144;2023-09-19T02:33:35;2.92;;;2.50;;
77280;SDS011;66339;47.262;17.144;2023-09-19T02:36:02;2.62;;;2.30;;
77280;SDS011;66339;47.262;17.144;2023-09-19T02:38:29;2.75;;;2.50;;
77280;SDS011;66339;47.262;17.144;2023-09-19T02:40:56;2.58;;;2.37;;
77280;SDS011;66339;47.262;17.144;2023-09-19T02:43:23;2.50;;;2.30;;
77280;SDS011;66339;47.262;17.144;2023-09-19T02:45:52;2.85;;;2.30;;
77280;SDS011;66339;47.262;17.144;2023-09-19T02:48:22;2.55;;;2.03;;
77280;SDS011;66339;47.262;17.144;2023-09-19T02:50:49;2.97;;;2.33;;
77280;SDS011;66339;47.262;17.144;2023-09-19T02:53:19;2.60;;;2.40;;
77280;SDS011;66339;47.262;17.144;2023-09-19T02:55:48;2.72;;;2.40;;
77280;SDS011;66339;47.262;17.144;2023-09-19T02:58:21;3.17;;;2.58;;
77280;SDS011;66339;47.262;17.144;2023-09-19T03:00:48;4.15;;;2.65;;
77280;SDS011;66339;47.262;17.144;2023-09-19T03:03:15;2.60;;;2.40;;
77280;SDS011;66339;47.262;17.144;2023-09-19T03:05:48;2.50;;;2.30;;
77280;SDS011;66339;47.262;17.144;2023-09-19T03:08:18;2.83;;;2.45;;
77280;SDS011;66339;47.262;17.144;2023-09-19T03:10:54;2.85;;;2.45;;
77280;SDS011;66339;47.262;17.144;2023-09-19T03:13:20;2.60;;;2.35;;
77280;SDS011;66339;47.262;17.144;2023-09-19T03:15:47;3.05;;;2.20;;
77280;SDS011;66339;47.262;17.144;2023-09-19T03:18:14;2.50;;;2.25;;
77280;SDS011;66339;47.262;17.144;2023-09-19T03:20:44;5.62;;;2.60;;
77280;SDS011;66339;47.262;17.144;2023-09-19T03:23:18;3.05;;;2.53;;
77280;SDS011;66339;47.262;17.144;2023-09-19T03:25:45;2.40;;;2.17;;
77280;SDS011;66339;47.262;17.144;2023-09-19T03:30:45;2.40;;;2.15;;
77280;SDS011;66339;47.262;17.144;2023-09-19T03:33:12;3.08;;;2.30;;
77280;SDS011;66339;47.262;17.144;2023-09-19T03:35:39;2.67;;;2.37;;
77280;SDS011;66339;47.262;17.144;2023-09-19T03:38:06;2.78;;;2.30;;
77280;SDS011;66339;47.262;17.144;2023-09-19T03:40:33;3.10;;;2.30;;
77280;SDS011;66339;47.262;17.144;2023-09-19T03:43:05;2.60;;;2.40;;
77280;SDS011;66339;47.262;17.144;2023-09-19T03:45:35;2.60;;;2.40;;
77280;SDS011;66339;47.262;17.144;2023-09-19T03:48:07;2.50;;;2.30;;
77280;SDS011;66339;47.262;17.144;2023-09-19T03:53:02;3.00;;;2.15;;
77280;SDS011;66339;47.262;17.144;2023-09-19T03:55:33;2.92;;;2.30;;
77280;SDS011;66339;47.262;17.144;2023-09-19T03:58:00;3.03;;;2.40;;
77280;SDS011;66339;47.262;17.144;2023-09-19T04:00:30;3.22;;;2.45;;
77280;SDS011;66339;47.262;17.144;2023-09-19T04:03:03;2.70;;;2.25;;
77280;SDS011;66339;47.262;17.144;2023-09-19T04:05:30;2.92;;;2.12;;
77280;SDS011;66339;47.262;17.144;2023-09-19T04:07:57;3.25;;;2.60;;
77280;SDS011;66339;47.262;17.144;2023-09-19T04:10:24;3.08;;;2.15;;
77280;SDS011;66339;47.262;17.144;2023-09-19T04:12:51;3.58;;;2.30;;
77280;SDS011;66339;47.262;17.144;2023-09-19T04:15:23;2.75;;;2.20;;
77280;SDS011;66339;47.262;17.144;2023-09-19T04:17:51;2.60;;;2.33;;
77280;SDS011;66339;47.262;17.144;2023-09-19T04:20:18;2.60;;;2.22;;
77280;SDS011;66339;47.262;17.144;2023-09-19T04:22:45;2.92;;;2.20;;
77280;SDS011;66339;47.262;17.144;2023-09-19T04:25:12;2.10;;;1.90;;
77280;SDS011;66339;47.262;17.144;2023-09-19T04:27:40;2.97;;;2.33;;
77280;SDS011;66339;47.262;17.144;2023-09-19T04:30:07;2.62;;;2.25;;
77280;SDS011;66339;47.262;17.144;2023-09-19T04:32:37;3.20;;;2.50;;
77280;SDS011;66339;47.262;17.144;2023-09-19T04:35:05;2.20;;;1.95;;
77280;SDS011;66339;47.262;17.144;2023-09-19T04:37:33;3.70;;;2.10;;
77280;SDS011;66339;47.262;17.144;2023-09-19T04:40:06;3.05;;;2.17;;
77280;SDS011;66339;47.262;17.144;2023-09-19T04:42:34;2.43;;;1.90;;
77280;SDS011;66339;47.262;17.144;2023-09-19T04:45:01;1.92;;;1.73;;
77280;SDS011;66339;47.262;17.144;2023-09-19T04:47:28;2.17;;;1.98;;
77280;SDS011;66339;47.262;17.144;2023-09-19T04:49:55;2.00;;;1.80;;
77280;SDS011;66339;47.262;17.144;2023-09-19T04:52:21;2.47;;;2.10;;
77280;SDS011;66339;47.262;17.144;2023-09-19T04:54:48;2.47;;;2.08;;
77280;SDS011;66339;47.262;17.144;2023-09-19T04:57:15;2.20;;;1.90;;
77280;SDS011;66339;47.262;17.144;2023-09-19T04:59:45;2.12;;;1.80;;
77280;SDS011;66339;47.262;17.144;2023-09-19T05:02:11;2.80;;;2.03;;
77280;SDS011;66339;47.262;17.144;2023-09-19T05:04:42;2.35;;;2.15;;
77280;SDS011;66339;47.262;17.144;2023-09-19T05:07:09;2.12;;;1.92;;
77280;SDS011;66339;47.262;17.144;2023-09-19T05:09:38;2.10;;;1.90;;
77280;SDS011;66339;47.262;17.144;2023-09-19T05:12:08;2.10;;;1.87;;
77280;SDS011;66339;47.262;17.144;2023-09-19T05:14:38;2.45;;;2.10;;
77280;SDS011;66339;47.262;17.144;2023-09-19T05:17:04;2.47;;;2.03;;
77280;SDS011;66339;47.262;17.144;2023-09-19T05:19:31;2.37;;;2.10;;
77280;SDS011;66339;47.262;17.144;2023-09-19T05:22:01;2.08;;;1.83;;
77280;SDS011;66339;47.262;17.144;2023-09-19T05:24:30;2.87;;;2.10;;
77280;SDS011;66339;47.262;17.144;2023-09-19T05:26:57;2.22;;;1.85;;
77280;SDS011;66339;47.262;17.144;2023-09-19T05:29:24;2.15;;;1.90;;
77280;SDS011;66339;47.262;17.144;2023-09-19T05:31:51;2.67;;;2.05;;
77280;SDS011;66339;47.262;17.144;2023-09-19T05:34:18;2.00;;;1.80;;
77280;SDS011;66339;47.262;17.144;2023-09-19T05:36:45;2.50;;;1.80;;
77280;SDS011;66339;47.262;17.144;2023-09-19T05:39:11;2.80;;;2.10;;
77280;SDS011;66339;47.262;17.144;2023-09-19T05:41:38;3.40;;;2.15;;
77280;SDS011;66339;47.262;17.144;2023-09-19T05:44:05;3.15;;;2.12;;
77280;SDS011;66339;47.262;17.144;2023-09-19T05:46:32;2.75;;;2.03;;
77280;SDS011;66339;47.262;17.144;2023-09-19T05:48:59;2.20;;;1.90;;
77280;SDS011;66339;47.262;17.144;2023-09-19T05:51:27;2.75;;;1.95;;
77280;SDS011;66339;47.262;17.144;2023-09-19T05:53:54;4.15;;;2.42;;
77280;SDS011;66339;47.262;17.144;2023-09-19T05:56:23;4.93;;;2.08;;
77280;SDS011;66339;47.262;17.144;2023-09-19T05:58:50;2.03;;;1.83;;
77280;SDS011;66339;47.262;17.144;2023-09-19T06:01:17;3.97;;;2.10;;
77280;SDS011;66339;47.262;17.144;2023-09-19T06:03:44;3.12;;;1.95;;
77280;SDS011;66339;47.262;17.144;2023-09-19T06:06:11;3.55;;;1.80;;
77280;SDS011;66339;47.262;17.144;2023-09-19T06:08:38;2.00;;;1.80;;
77280;SDS011;66339;47.262;17.144;2023-09-19T06:11:10;5.82;;;2.20;;
77280;SDS011;66339;47.262;17.144;2023-09-19T06:13:36;2.40;;;2.10;;
77280;SDS011;66339;47.262;17.144;2023-09-19T06:16:04;2.10;;;1.80;;
77280;SDS011;66339;47.262;17.144;2023-09-19T06:18:31;4.87;;;2.03;;
77280;SDS011;66339;47.262;17.144;2023-09-19T06:20:58;2.83;;;1.90;;
77280;SDS011;66339;47.262;17.144;2023-09-19T06:23:26;2.35;;;1.87;;
77280;SDS011;66339;47.262;17.144;2023-09-19T06:25:55;2.20;;;1.80;;
77280;SDS011;66339;47.262;17.144;2023-09-19T06:28:23;2.37;;;1.80;;
77280;SDS011;66339;47.262;17.144;2023-09-19T06:30:50;2.45;;;1.90;;
77280;SDS011;66339;47.262;17.144;2023-09-19T06:33:17;2.10;;;1.90;;
77280;SDS011;66339;47.262;17.144;2023-09-19T06:35:45;2.92;;;2.03;;
77280;SDS011;66339;47.262;17.144;2023-09-19T06:38:11;2.08;;;1.80;;
77280;SDS011;66339;47.262;17.144;2023-09-19T06:40:38;2.45;;;1.90;;
77280;SDS011;66339;47.262;17.144;2023-09-19T06:43:09;2.90;;;1.70;;
77280;SDS011;66339;47.262;17.144;2023-09-19T06:45:36;3.87;;;1.98;;
77280;SDS011;66339;47.262;17.144;2023-09-19T06:48:04;2.50;;;1.90;;
77280;SDS011;66339;47.262;17.144;2023-09-19T06:50:34;3.55;;;1.92;;
77280;SDS011;66339;47.262;17.144;2023-09-19T06:53:00;2.03;;;1.83;;
77280;SDS011;66339;47.262;17.144;2023-09-19T06:55:28;2.55;;;1.87;;
77280;SDS011;66339;47.262;17.144;2023-09-19T06:58:01;2.83;;;1.80;;
77280;SDS011;66339;47.262;17.144;2023-09-19T07:00:27;2.42;;;1.80;;
77280;SDS011;66339;47.262;17.144;2023-09-19T07:05:26;3.05;;;1.80;;
77280;SDS011;66339;47.262;17.144;2023-09-19T07:07:57;1.95;;;1.62;;
77280;SDS011;66339;47.262;17.144;2023-09-19T07:10:25;2.00;;;1.80;;
77280;SDS011;66339;47.262;17.144;2023-09-19T07:12:56;2.65;;;2.05;;
77280;SDS011;66339;47.262;17.144;2023-09-19T07:15:24;2.35;;;1.80;;
77280;SDS011;66339;47.262;17.144;2023-09-19T07:17:54;1.92;;;1.60;;
77280;SDS011;66339;47.262;17.144;2023-09-19T07:20:24;2.00;;;1.80;;
77280;SDS011;66339;47.262;17.144;2023-09-19T07:22:51;2.12;;;1.83;;
77280;SDS011;66339;47.262;17.144;2023-09-19T07:25:22;3.25;;;1.77;;
77280;SDS011;66339;47.262;17.144;2023-09-19T07:27:49;2.12;;;1.90;;
77280;SDS011;66339;47.262;17.144;2023-09-19T07:30:20;2.30;;;1.92;;
77280;SDS011;66339;47.262;17.144;2023-09-19T07:32:53;2.00;;;1.67;;
77280;SDS011;66339;47.262;17.144;2023-09-19T07:35:20;1.95;;;1.75;;
77280;SDS011;66339;47.262;17.144;2023-09-19T07:37:50;2.70;;;1.80;;
77280;SDS011;66339;47.262;17.144;2023-09-19T07:40:19;2.10;;;1.62;;
77280;SDS011;66339;47.262;17.144;2023-09-19T07:42:47;3.08;;;1.90;;
77280;SDS011;66339;47.262;17.144;2023-09-19T07:45:14;3.47;;;1.90;;
77280;SDS011;66339;47.262;17.144;2023-09-19T07:47:44;2.53;;;1.60;;
77280;SDS011;66339;47.262;17.144;2023-09-19T07:50:19;1.90;;;1.75;;
77280;SDS011;66339;47.262;17.144;2023-09-19T07:52:46;2.22;;;1.70;;
77280;SDS011;66339;47.262;17.144;2023-09-19T07:55:17;1.98;;;1.73;;
77280;SDS011;66339;47.262;17.144;2023-09-19T07:57:48;2.33;;;1.60;;
77280;SDS011;66339;47.262;17.144;2023-09-19T08:00:21;2.47;;;1.95;;
77280;SDS011;66339;47.262;17.144;2023-09-19T08:02:48;2.58;;;2.00;;
77280;SDS011;66339;47.262;17.144;2023-09-19T08:05:27;2.67;;;1.90;;
77280;SDS011;66339;47.262;17.144;2023-09-19T08:07:54;2.35;;;1.90;;
77280;SDS011;66339;47.262;17.144;2023-09-19T08:10:21;2.55;;;1.95;;
77280;SDS011;66339;47.262;17.144;2023-09-19T08:12:48;2.33;;;1.60;;
77280;SDS011;66339;47.262;17.144;2023-09-19T08:15:18;2.33;;;1.70;;
77280;SDS011;66339;47.262;17.144;2023-09-19T08:17:47;2.95;;;1.77;;
77280;SDS011;66339;47.262;17.144;2023-09-19T08:20:20;1.83;;;1.60;;
77280;SDS011;66339;47.262;17.144;2023-09-19T08:22:55;2.40;;;1.80;;
77280;SDS011;66339;47.262;17.144;2023-09-19T08:25:22;2.17;;;1.75;;
77280;SDS011;66339;47.262;17.144;2023-09-19T08:27:50;2.53;;;1.70;;
77280;SDS011;66339;47.262;17.144;2023-09-19T08:30:17;2.20;;;1.92;;
77280;SDS011;66339;47.262;17.144;2023-09-19T08:32:50;2.25;;;1.92;;
77280;SDS011;66339;47.262;17.144;2023-09-19T08:35:17;1.90;;;1.67;;
77280;SDS011;66339;47.262;17.144;2023-09-19T08:37:44;2.50;;;1.70;;
77280;SDS011;66339;47.262;17.144;2023-09-19T08:40:11;2.03;;;1.80;;
77280;SDS011;66339;47.262;17.144;2023-09-19T08:42:51;2.95;;;1.52;;
77280;SDS011;66339;47.262;17.144;2023-09-19T08:45:23;2.72;;;1.70;;
77280;SDS011;66339;47.262;17.144;2023-09-19T08:48:05;2.85;;;1.95;;
77280;SDS011;66339;47.262;17.144;2023-09-19T08:51:03;2.28;;;1.73;;
77280;SDS011;66339;47.262;17.144;2023-09-19T08:56:10;2.37;;;1.80;;
77280;SDS011;66339;47.262;17.144;2023-09-19T08:59:03;2.20;;;1.67;;
77280;SDS011;66339;47.262;17.144;2023-09-19T09:01:31;2.17;;;1.60;;
77280;SDS011;66339;47.262;17.144;2023-09-19T09:03:58;2.10;;;1.70;;
77280;SDS011;66339;47.262;17.144;2023-09-19T09:06:25;1.73;;;1.50;;
77280;SDS011;66339;47.262;17.144;2023-09-19T09:08:53;1.90;;;1.67;;
77280;SDS011;66339;47.262;17.144;2023-09-19T09:11:23;2.35;;;1.58;;
77280;SDS011;66339;47.262;17.144;2023-09-19T09:16:25;1.55;;;1.45;;
77280;SDS011;66339;47.262;17.144;2023-09-19T09:18:56;1.90;;;1.60;;
77280;SDS011;66339;47.262;17.144;2023-09-19T09:21:26;2.00;;;1.77;;
77280;SDS011;66339;47.262;17.144;2023-09-19T09:23:56;1.85;;;1.60;;
77280;SDS011;66339;47.262;17.144;2023-09-19T09:26:42;2.58;;;1.80;;
77280;SDS011;66339;47.262;17.144;2023-09-19T09:29:09;1.73;;;1.52;;
77280;SDS011;66339;47.262;17.144;2023-09-19T09:31:36;1.85;;;1.58;;
77280;SDS011;66339;47.262;17.144;2023-09-19T09:34:06;1.77;;;1.60;;
77280;SDS011;66339;47.262;17.144;2023-09-19T09:36:40;1.92;;;1.73;;
77280;SDS011;66339;47.262;17.144;2023-09-19T09:39:07;2.03;;;1.75;;
77280;SDS011;66339;47.262;17.144;2023-09-19T09:41:37;2.20;;;1.50;;
77280;SDS011;66339;47.262;17.144;2023-09-19T09:44:15;1.58;;;1.45;;
77280;SDS011;66339;47.262;17.144;2023-09-19T09:46:46;1.85;;;1.62;;
77280;SDS011;66339;47.262;17.144;2023-09-19T09:49:26;2.17;;;1.83;;
77280;SDS011;66339;47.262;17.144;2023-09-19T09:52:06;1.73;;;1.42;;
77280;SDS011;66339;47.262;17.144;2023-09-19T09:54:37;1.52;;;1.42;;
77280;SDS011;66339;47.262;17.144;2023-09-19T09:57:06;1.87;;;1.62;;
77280;SDS011;66339;47.262;17.144;2023-09-19T09:59:53;1.73;;;1.48;;
77280;SDS011;66339;47.262;17.144;2023-09-19T10:02:24;2.83;;;1.73;;
77280;SDS011;66339;47.262;17.144;2023-09-19T10:05:13;1.48;;;1.37;;
77280;SDS011;66339;47.262;17.144;2023-09-19T10:07:44;1.50;;;1.40;;
77280;SDS011;66339;47.262;17.144;2023-09-19T10:10:13;1.90;;;1.40;;
77280;SDS011;66339;47.262;17.144;2023-09-19T10:12:41;1.85;;;1.50;;
77280;SDS011;66339;47.262;17.144;2023-09-19T10:15:12;2.15;;;1.75;;
77280;SDS011;66339;47.262;17.144;2023-09-19T10:17:47;1.50;;;1.40;;
77280;SDS011;66339;47.262;17.144;2023-09-19T10:20:15;3.25;;;1.70;;
77280;SDS011;66339;47.262;17.144;2023-09-19T10:22:43;1.70;;;1.37;;
77280;SDS011;66339;47.262;17.144;2023-09-19T10:25:15;2.40;;;1.70;;
77280;SDS011;66339;47.262;17.144;2023-09-19T10:27:42;3.08;;;1.60;;
77280;SDS011;66339;47.262;17.144;2023-09-19T10:30:10;1.70;;;1.58;;
77280;SDS011;66339;47.262;17.144;2023-09-19T10:32:39;2.00;;;1.42;;
77280;SDS011;66339;47.262;17.144;2023-09-19T10:35:11;1.92;;;1.62;;
77280;SDS011;66339;47.262;17.144;2023-09-19T10:37:38;1.77;;;1.58;;
77280;SDS011;66339;47.262;17.144;2023-09-19T10:40:14;1.75;;;1.60;;
77280;SDS011;66339;47.262;17.144;2023-09-19T10:42:43;1.73;;;1.55;;
77280;SDS011;66339;47.262;17.144;2023-09-19T10:45:13;2.15;;;1.80;;
77280;SDS011;66339;47.262;17.144;2023-09-19T10:47:41;1.60;;;1.50;;
77280;SDS011;66339;47.262;17.144;2023-09-19T10:50:19;3.58;;;1.65;;
77280;SDS011;66339;47.262;17.144;2023-09-19T10:52:53;1.48;;;1.37;;
77280;SDS011;66339;47.262;17.144;2023-09-19T10:55:25;2.55;;;1.80;;
77280;SDS011;66339;47.262;17.144;2023-09-19T10:57:58;1.75;;;1.52;;
77280;SDS011;66339;47.262;17.144;2023-09-19T11:00:28;1.70;;;1.45;;
77280;SDS011;66339;47.262;17.144;2023-09-19T11:05:43;2.15;;;1.40;;
77280;SDS011;66339;47.262;17.144;2023-09-19T11:11:39;5.70;;;1.67;;
77280;SDS011;66339;47.262;17.144;2023-09-19T11:14:28;2.62;;;1.50;;
77280;SDS011;66339;47.262;17.144;2023-09-19T11:30:34;2.15;;;1.52;;
77280;SDS011;66339;47.262;17.144;2023-09-19T11:33:18;1.55;;;1.30;;
77280;SDS011;66339;47.262;17.144;2023-09-19T11:46:53;2.55;;;1.40;;
77280;SDS011;66339;47.262;17.144;2023-09-19T11:49:33;2.40;;;1.50;;
77280;SDS011;66339;47.262;17.144;2023-09-19T11:54:36;2.35;;;1.45;;
77280;SDS011;66339;47.262;17.144;2023-09-19T11:57:03;1.90;;;1.25;;
77280;SDS011;66339;47.262;17.144;2023-09-19T11:59:31;1.80;;;1.40;;
77280;SDS011;66339;47.262;17.144;2023-09-19T12:02:01;1.55;;;1.40;;
77280;SDS011;66339;47.262;17.144;2023-09-19T12:04:38;2.42;;;1.55;;
77280;SDS011;66339;47.262;17.144;2023-09-19T12:07:13;1.50;;;1.40;;
77280;SDS011;66339;47.262;17.144;2023-09-19T12:09:48;1.50;;;1.40;;
77280;SDS011;66339;47.262;17.144;2023-09-19T12:17:21;1.50;;;1.35;;
77280;SDS011;66339;47.262;17.144;2023-09-19T12:19:55;4.55;;;1.40;;
77280;SDS011;66339;47.262;17.144;2023-09-19T12:22:31;1.55;;;1.30;;
77280;SDS011;66339;47.262;17.144;2023-09-19T12:25:06;2.97;;;1.45;;
77280;SDS011;66339;47.262;17.144;2023-09-19T12:27:41;1.60;;;1.30;;
77280;SDS011;66339;47.262;17.144;2023-09-19T12:30:12;1.65;;;1.42;;
77280;SDS011;66339;47.262;17.144;2023-09-19T12:32:53;2.08;;;1.45;;
77280;SDS011;66339;47.262;17.144;2023-09-19T12:35:33;1.40;;;1.30;;
77280;SDS011;66339;47.262;17.144;2023-09-19T12:38:00;1.50;;;1.40;;
77280;SDS011;66339;47.262;17.144;2023-09-19T12:40:27;1.50;;;1.30;;
77280;SDS011;66339;47.262;17.144;2023-09-19T12:42:56;2.05;;;1.40;;
77280;SDS011;66339;47.262;17.144;2023-09-19T12:45:23;1.35;;;1.20;;
77280;SDS011;66339;47.262;17.144;2023-09-19T12:53:29;1.60;;;1.42;;
77280;SDS011;66339;47.262;17.144;2023-09-19T12:56:02;1.77;;;1.62;;
77280;SDS011;66339;47.262;17.144;2023-09-19T12:58:29;1.33;;;1.23;;
77280;SDS011;66339;47.262;17.144;2023-09-19T13:00:59;1.77;;;1.37;;
77280;SDS011;66339;47.262;17.144;2023-09-19T13:03:26;1.40;;;1.30;;
77280;SDS011;66339;47.262;17.144;2023-09-19T13:05:54;2.30;;;1.48;;
77280;SDS011;66339;47.262;17.144;2023-09-19T13:08:24;1.85;;;1.58;;
77280;SDS011;66339;47.262;17.144;2023-09-19T13:13:47;1.70;;;1.50;;
77280;SDS011;66339;47.262;17.144;2023-09-19T13:19:46;2.10;;;1.52;;
77280;SDS011;66339;47.262;17.144;2023-09-19T13:25:22;2.00;;;1.40;;
77280;SDS011;66339;47.262;17.144;2023-09-19T13:27:50;1.55;;;1.30;;
77280;SDS011;66339;47.262;17.144;2023-09-19T13:30:28;1.60;;;1.48;;
77280;SDS011;66339;47.262;17.144;2023-09-19T13:35:36;1.42;;;1.30;;
77280;SDS011;66339;47.262;17.144;2023-09-19T13:38:04;1.37;;;1.25;;
77280;SDS011;66339;47.262;17.144;2023-09-19T13:40:31;1.85;;;1.48;;
77280;SDS011;66339;47.262;17.144;2023-09-19T13:42:58;1.42;;;1.33;;
77280;SDS011;66339;47.262;17.144;2023-09-19T13:45:25;1.33;;;1.23;;
77280;SDS011;66339;47.262;17.144;2023-09-19T13:47:52;1.90;;;1.45;;
77280;SDS011;66339;47.262;17.144;2023-09-19T13:50:22;1.40;;;1.30;;
77280;SDS011;66339;47.262;17.144;2023-09-19T13:52:54;1.55;;;1.40;;
77280;SDS011;66339;47.262;17.144;2023-09-19T13:55:21;2.60;;;1.40;;
77280;SDS011;66339;47.262;17.144;2023-09-19T13:57:52;1.35;;;1.25;;
77280;SDS011;66339;47.262;17.144;2023-09-19T14:00:22;2.20;;;1.58;;
77280;SDS011;66339;47.262;17.144;2023-09-19T14:02:49;1.50;;;1.40;;
77280;SDS011;66339;47.262;17.144;2023-09-19T14:05:16;1.37;;;1.27;;
77280;SDS011;66339;47.262;17.144;2023-09-19T14:07:43;1.90;;;1.45;;
77280;SDS011;66339;47.262;17.144;2023-09-19T14:10:16;1.50;;;1.40;;
77280;SDS011;66339;47.262;17.144;2023-09-19T14:12:46;1.30;;;1.20;;
77280;SDS011;66339;47.262;17.144;2023-09-19T14:15:17;1.25;;;1.15;;
77280;SDS011;66339;47.262;17.144;2023-09-19T14:17:43;1.50;;;1.40;;
77280;SDS011;66339;47.262;17.144;2023-09-19T14:20:10;1.70;;;1.40;;
77280;SDS011;66339;47.262;17.144;2023-09-19T14:22:38;1.58;;;1.23;;
77280;SDS011;66339;47.262;17.144;2023-09-19T14:25:05;1.35;;;1.25;;
77280;SDS011;66339;47.262;17.144;2023-09-19T14:27:35;1.33;;;1.23;;
77280;SDS011;66339;47.262;17.144;2023-09-19T14:30:01;1.40;;;1.30;;
77280;SDS011;66339;47.262;17.144;2023-09-19T14:32:33;1.40;;;1.30;;
77280;SDS011;66339;47.262;17.144;2023-09-19T14:35:07;1.60;;;1.30;;
77280;SDS011;66339;47.262;17.144;2023-09-19T14:37:34;1.25;;;1.12;;
77280;SDS011;66339;47.262;17.144;2023-09-19T14:40:04;2.83;;;1.50;;
77280;SDS011;66339;47.262;17.144;2023-09-19T14:42:31;1.92;;;1.48;;
77280;SDS011;66339;47.262;17.144;2023-09-19T14:44:58;1.30;;;1.20;;
77280;SDS011;66339;47.262;17.144;2023-09-19T14:47:25;1.48;;;1.35;;
77280;SDS011;66339;47.262;17.144;2023-09-19T14:49:58;1.30;;;1.20;;
77280;SDS011;66339;47.262;17.144;2023-09-19T14:52:28;1.40;;;1.30;;
77280;SDS011;66339;47.262;17.144;2023-09-19T14:54:58;1.27;;;1.17;;
77280;SDS011;66339;47.262;17.144;2023-09-19T14:57:27;1.50;;;1.30;;
77280;SDS011;66339;47.262;17.144;2023-09-19T14:59:59;1.75;;;1.40;;
77280;SDS011;66339;47.262;17.144;2023-09-19T15:02:26;3.05;;;1.37;;
77280;SDS011;66339;47.262;17.144;2023-09-19T15:05:00;1.73;;;1.37;;
77280;SDS011;66339;47.262;17.144;2023-09-19T15:07:30;1.23;;;1.12;;
77280;SDS011;66339;47.262;17.144;2023-09-19T15:09:57;2.40;;;1.40;;
77280;SDS011;66339;47.262;17.144;2023-09-19T15:12:24;2.65;;;1.40;;
77280;SDS011;66339;47.262;17.144;2023-09-19T15:14:51;1.40;;;1.30;;
77280;SDS011;66339;47.262;17.144;2023-09-19T15:17:18;1.80;;;1.30;;
77280;SDS011;66339;47.262;17.144;2023-09-19T15:19:49;1.33;;;1.23;;
77280;SDS011;66339;47.262;17.144;2023-09-19T15:22:19;1.70;;;1.10;;
77280;SDS011;66339;47.262;17.144;2023-09-19T15:24:46;1.50;;;1.20;;
77280;SDS011;66339;47.262;17.144;2023-09-19T15:27:13;1.25;;;1.15;;
77280;SDS011;66339;47.262;17.144;2023-09-19T15:29:39;1.33;;;1.23;;
77280;SDS011;66339;47.262;17.144;2023-09-19T15:32:06;1.42;;;1.27;;
77280;SDS011;66339;47.262;17.144;2023-09-19T15:34:33;1.30;;;1.20;;
77280;SDS011;66339;47.262;17.144;2023-09-19T15:37:03;1.55;;;1.40;;
77280;SDS011;66339;47.262;17.144;2023-09-19T15:39:30;1.70;;;1.23;;
77280;SDS011;66339;47.262;17.144;2023-09-19T15:41:57;1.42;;;1.30;;
77280;SDS011;66339;47.262;17.144;2023-09-19T15:44:27;1.40;;;1.30;;
77280;SDS011;66339;47.262;17.144;2023-09-19T15:46:54;1.12;;;1.02;;
77280;SDS011;66339;47.262;17.144;2023-09-19T15:49:21;1.62;;;1.30;;
77280;SDS011;66339;47.262;17.144;2023-09-19T15:51:53;1.40;;;1.30;;
77280;SDS011;66339;47.262;17.144;2023-09-19T15:54:20;1.30;;;1.20;;
77280;SDS011;66339;47.262;17.144;2023-09-19T15:56:47;1.23;;;1.10;;
77280;SDS011;66339;47.262;17.144;2023-09-19T15:59:14;1.27;;;1.10;;
77280;SDS011;66339;47.262;17.144;2023-09-19T16:01:41;1.20;;;1.10;;
77280;SDS011;66339;47.262;17.144;2023-09-19T16:04:12;1.20;;;1.10;;
77280;SDS011;66339;47.262;17.144;2023-09-19T16:06:42;1.40;;;1.30;;
77280;SDS011;66339;47.262;17.144;2023-09-19T16:09:08;1.33;;;1.17;;
77280;SDS011;66339;47.262;17.144;2023-09-19T16:11:36;1.30;;;1.08;;